Terminal Aerodrome Forecast
Issued by NWS

Home | Current Version | Previous Version | Text Only | Print | Product List | Glossary On
Versions: 1 2 3 4 5 6 7 8 9 10 11 12 13 14 15 16 17
000
FTUS44 KSJT 170500
TAFBBD
TAF
KBBD 170520Z 1706/1806 VRB03KT P6SM BKN120
     FM171100 VRB04KT P6SM BKN018
     FM171500 VRB05KT P6SM SCT035 SCT120
     FM171800 10006KT P6SM SCT050 BKN200=

USA.gov is the U.S. government's official web portal to all federal, state and local government web resources and services.